createdAt,value
2023-05-20T00:01:46.364Z,10.73
2023-05-20T00:06:48.138Z,10.73
2023-05-20T00:11:50.036Z,10.73
2023-05-20T00:16:52.023Z,10.75
2023-05-20T00:21:53.838Z,10.75
2023-05-20T00:26:55.763Z,10.74
2023-05-20T00:31:57.624Z,10.73
2023-05-20T00:36:59.763Z,10.73
2023-05-20T00:42:03.515Z,10.72
2023-05-20T00:47:05.535Z,10.72
2023-05-20T00:52:08.381Z,10.76
2023-05-20T00:57:10.747Z,10.78
2023-05-20T01:02:12.853Z,10.78
2023-05-20T01:07:19.419Z,10.78
2023-05-20T01:12:26.427Z,10.79
2023-05-20T01:17:32.987Z,10.77
2023-05-20T01:22:58.110Z,10.76
2023-05-20T01:27:59.912Z,10.75
2023-05-20T01:33:07.276Z,10.79
2023-05-20T01:38:09.557Z,10.82
2023-05-20T01:43:12.418Z,10.83
2023-05-20T01:48:16.918Z,10.83
2023-05-20T01:53:18.803Z,10.81
2023-05-20T01:58:20.759Z,10.80
2023-05-20T02:03:22.805Z,10.82
2023-05-20T02:08:24.734Z,10.85
2023-05-20T02:13:26.594Z,10.87
2023-05-20T02:18:28.433Z,10.85
2023-05-20T02:23:33.180Z,10.78
2023-05-20T02:28:35.039Z,10.74
2023-05-20T02:33:36.917Z,10.72
2023-05-20T02:38:39.024Z,10.73
2023-05-20T02:43:40.838Z,10.77
2023-05-20T02:48:42.595Z,10.79
2023-05-20T02:53:44.432Z,10.77
2023-05-20T02:58:46.707Z,10.77
2023-05-20T03:03:49.203Z,10.76
2023-05-20T03:08:51.397Z,10.74
2023-05-20T03:13:53.277Z,10.68
2023-05-20T03:18:55.194Z,10.64
2023-05-20T03:23:57.101Z,10.63
2023-05-20T03:28:59.355Z,10.64
2023-05-20T03:34:02.027Z,10.64
2023-05-20T03:39:04.630Z,10.65
2023-05-20T03:44:07.299Z,10.63
2023-05-20T03:49:09.336Z,10.57
2023-05-20T03:54:12.041Z,10.51
2023-05-20T03:59:15.098Z,10.49
2023-05-20T04:07:13.612Z,10.53
2023-05-20T04:12:16.044Z,10.53
2023-05-20T04:17:17.818Z,10.55
2023-05-20T04:22:19.879Z,10.61
2023-05-20T04:27:21.866Z,10.68
2023-05-20T04:32:23.814Z,10.77
2023-05-20T04:37:26.333Z,10.83
2023-05-20T04:42:29.892Z,10.89
2023-05-20T04:47:38.617Z,10.99
2023-05-20T04:52:46.207Z,11.09
2023-05-20T04:57:48.191Z,11.21
2023-05-20T05:02:50.211Z,11.36
2023-05-20T05:07:53.261Z,11.53
2023-05-20T05:12:55.118Z,11.66
2023-05-20T05:17:57.775Z,11.82
2023-05-20T05:22:59.902Z,12.03
2023-05-20T05:28:01.728Z,12.22
2023-05-20T05:33:03.642Z,12.39
2023-05-20T05:38:05.634Z,12.51
2023-05-20T05:43:07.817Z,12.55
2023-05-20T05:48:10.459Z,12.60
2023-05-20T05:53:13.279Z,12.67
2023-05-20T05:58:16.521Z,12.81
2023-05-20T06:03:18.903Z,13.01
2023-05-20T06:08:20.918Z,13.18
2023-05-20T06:13:23.439Z,13.32
2023-05-20T06:18:25.433Z,13.43
2023-05-20T06:23:31.271Z,13.58
2023-05-20T06:28:35.918Z,13.77
2023-05-20T06:33:37.846Z,13.90
2023-05-20T06:38:45.737Z,14.05
2023-05-20T06:43:50.573Z,14.06
2023-05-20T06:49:13.302Z,14.05
2023-05-20T06:54:15.969Z,14.04
2023-05-20T06:59:18.246Z,14.11
2023-05-20T07:04:20.554Z,14.18
2023-05-20T07:09:23.054Z,14.32
2023-05-20T07:14:25.777Z,14.46
2023-05-20T07:19:27.967Z,14.65
2023-05-20T07:24:30.171Z,14.83
2023-05-20T07:29:32.406Z,14.95
2023-05-20T07:34:34.956Z,15.10
2023-05-20T07:39:37.028Z,15.41
2023-05-20T07:44:42.048Z,15.74
2023-05-20T07:49:44.559Z,16.06
2023-05-20T07:54:46.504Z,16.19
2023-05-20T07:59:51.364Z,16.36
2023-05-20T08:04:54.597Z,16.44
2023-05-20T08:09:57.100Z,16.65
2023-05-20T08:14:59.058Z,16.92
2023-05-20T08:20:01.841Z,17.20
2023-05-20T08:25:08.099Z,17.44
2023-05-20T08:30:13.663Z,17.80
2023-05-20T08:35:16.586Z,18.17
2023-05-20T08:40:20.851Z,18.73
2023-05-20T08:45:27.860Z,19.01
2023-05-20T08:50:33.378Z,19.19
2023-05-20T08:55:43.050Z,19.80
2023-05-20T09:00:45.549Z,20.38
2023-05-20T09:05:48.062Z,20.81
2023-05-20T09:10:52.659Z,20.88
2023-05-20T09:15:54.495Z,20.93
2023-05-20T09:20:56.757Z,20.93
2023-05-20T09:26:02.414Z,21.80
2023-05-20T09:31:06.688Z,23.28
2023-05-20T09:36:09.424Z,24.27
2023-05-20T09:41:15.466Z,24.72
2023-05-20T09:46:17.523Z,25.22
2023-05-20T09:51:22.786Z,25.33
2023-05-20T09:56:26.384Z,23.55
2023-05-20T10:01:28.234Z,22.41
2023-05-20T10:06:43.416Z,22.64
2023-05-20T10:11:59.570Z,23.05
2023-05-20T10:17:20.330Z,23.19
2023-05-20T10:22:29.887Z,23.48
2023-05-20T10:27:46.025Z,24.31
2023-05-20T10:32:58.167Z,24.58
2023-05-20T10:38:12.264Z,24.20
2023-05-20T10:43:16.285Z,24.04
2023-05-20T10:48:24.411Z,23.60
2023-05-20T10:53:34.452Z,24.05
2023-05-20T10:58:37.662Z,23.41
2023-05-20T11:03:41.149Z,22.71
2023-05-20T11:08:43.235Z,22.98
2023-05-20T11:13:50.716Z,23.82
2023-05-20T11:18:52.497Z,24.24
2023-05-20T11:23:54.909Z,24.32
2023-05-20T11:28:58.276Z,24.31
2023-05-20T11:34:01.728Z,24.15
2023-05-20T11:39:03.848Z,24.06
2023-05-20T11:44:10.264Z,23.76
2023-05-20T11:49:14.006Z,23.82
2023-05-20T11:54:15.979Z,24.01
2023-05-20T11:59:17.745Z,24.26
2023-05-20T12:04:19.680Z,24.38
2023-05-20T12:09:22.576Z,24.07
2023-05-20T12:14:24.516Z,24.27
2023-05-20T12:19:26.348Z,24.64
2023-05-20T12:24:28.106Z,25.25
2023-05-20T12:29:30.097Z,25.55
2023-05-20T12:34:33.281Z,25.93
2023-05-20T12:39:42.485Z,25.96
2023-05-20T12:44:44.283Z,25.33
2023-05-20T12:49:46.038Z,24.96
2023-05-20T12:54:47.923Z,24.62
2023-05-20T12:59:50.198Z,24.48
2023-05-20T13:04:52.015Z,24.92
2023-05-20T13:09:53.830Z,25.53
2023-05-20T13:14:55.584Z,25.94
2023-05-20T13:19:57.346Z,26.54
2023-05-20T13:24:59.354Z,27.25
2023-05-20T13:30:02.027Z,27.30
2023-05-20T13:35:07.152Z,27.50
2023-05-20T13:40:09.555Z,27.58
2023-05-20T13:45:11.759Z,27.81
2023-05-20T13:50:13.556Z,28.11
2023-05-20T13:55:16.303Z,27.96
2023-05-20T14:00:18.780Z,28.08
2023-05-20T14:05:21.470Z,28.62
2023-05-20T14:10:23.181Z,28.71
2023-05-20T14:15:24.899Z,28.05
2023-05-20T14:20:26.952Z,27.76
2023-05-20T14:25:29.136Z,28.09
2023-05-20T14:30:31.273Z,28.00
2023-05-20T14:35:33.101Z,27.74
2023-05-20T14:40:35.090Z,27.83
2023-05-20T14:45:37.046Z,28.05
2023-05-20T14:50:38.808Z,28.25
2023-05-20T14:55:40.863Z,28.52
2023-05-20T15:00:43.035Z,28.80
2023-05-20T15:05:44.949Z,28.46
2023-05-20T15:10:46.953Z,28.08
2023-05-20T15:15:48.757Z,28.34
2023-05-20T15:20:50.664Z,28.28
2023-05-20T15:25:52.649Z,28.12
2023-05-20T15:30:56.213Z,28.09
2023-05-20T15:35:58.046Z,28.28
2023-05-20T15:40:59.843Z,28.57
2023-05-20T15:46:01.610Z,28.60
2023-05-20T15:51:04.333Z,28.46
2023-05-20T15:56:07.112Z,28.45
2023-05-20T16:01:08.870Z,28.43
2023-05-20T16:06:11.848Z,28.21
2023-05-20T16:11:13.753Z,28.38
2023-05-20T16:16:16.802Z,27.91
2023-05-20T16:21:19.666Z,27.45
2023-05-20T16:26:21.469Z,26.75
2023-05-20T16:31:23.813Z,26.09
2023-05-20T16:36:26.964Z,25.37
2023-05-20T16:41:28.736Z,24.83
2023-05-20T16:46:30.574Z,24.33
2023-05-20T16:51:32.352Z,23.87
2023-05-20T16:56:35.503Z,23.49
2023-05-20T17:01:37.357Z,23.12
2023-05-20T17:06:39.928Z,22.75
2023-05-20T17:11:42.134Z,22.42
2023-05-20T17:16:43.855Z,22.10
2023-05-20T17:21:45.893Z,21.80
2023-05-20T17:26:47.629Z,21.47
2023-05-20T17:31:49.628Z,21.16
2023-05-20T17:36:51.616Z,21.11
2023-05-20T17:41:53.411Z,21.47
2023-05-20T17:46:55.126Z,21.67
2023-05-20T17:51:56.922Z,21.74
2023-05-20T17:56:58.641Z,21.68
2023-05-20T18:02:01.375Z,21.38
2023-05-20T18:07:09.789Z,20.96
2023-05-20T18:12:11.538Z,20.56
2023-05-20T18:17:13.298Z,20.11
2023-05-20T18:22:15.092Z,19.73
2023-05-20T18:27:17.082Z,19.40
2023-05-20T18:32:18.953Z,19.12
2023-05-20T18:37:21.009Z,18.89
2023-05-20T18:42:22.733Z,18.67
2023-05-20T18:47:24.583Z,18.47
2023-05-20T18:52:26.451Z,18.29
2023-05-20T18:57:28.389Z,18.13
2023-05-20T19:02:30.180Z,17.99
2023-05-20T19:07:32.148Z,17.86
2023-05-20T19:12:33.928Z,17.76
2023-05-20T19:17:35.837Z,17.68
2023-05-20T19:22:37.750Z,17.62
2023-05-20T19:27:39.542Z,17.59
2023-05-20T19:32:41.624Z,17.53
2023-05-20T19:37:43.580Z,17.40
2023-05-20T19:42:45.332Z,17.24
2023-05-20T19:47:47.173Z,17.05
2023-05-20T19:52:49.026Z,16.89
2023-05-20T19:57:53.549Z,16.76
2023-05-20T20:02:56.974Z,16.65
2023-05-20T20:07:59.265Z,16.60
2023-05-20T20:13:01.298Z,16.51
2023-05-20T20:18:03.409Z,16.43
2023-05-20T20:23:08.030Z,16.37
2023-05-20T20:28:11.264Z,16.28
2023-05-20T20:33:14.664Z,16.17
2023-05-20T20:38:18.131Z,16.06
2023-05-20T20:43:21.228Z,16.00
2023-05-20T20:48:27.294Z,15.97
2023-05-20T20:53:29.222Z,15.88
2023-05-20T20:58:35.059Z,15.77
2023-05-20T21:03:40.123Z,15.70
2023-05-20T21:08:42.724Z,15.64
2023-05-20T21:13:47.696Z,15.54
2023-05-20T21:18:49.577Z,15.43
2023-05-20T21:23:52.822Z,15.31
2023-05-20T21:28:54.616Z,15.20
2023-05-20T21:33:56.394Z,15.10
2023-05-20T21:38:59.191Z,15.00
2023-05-20T21:44:01.528Z,14.96
2023-05-20T21:49:04.738Z,14.95
2023-05-20T21:54:06.612Z,14.89
2023-05-20T21:59:08.288Z,14.81
2023-05-20T22:04:11.871Z,14.74
2023-05-20T22:09:13.822Z,14.73
2023-05-20T22:14:16.411Z,14.71
2023-05-20T22:19:18.266Z,14.68
2023-05-20T22:24:20.056Z,14.65
2023-05-20T22:29:22.513Z,14.62
2023-05-20T22:34:24.250Z,14.54
2023-05-20T22:39:25.991Z,14.44
2023-05-20T22:44:27.751Z,14.41
2023-05-20T22:49:29.462Z,14.41
2023-05-20T22:54:31.228Z,14.42
2023-05-20T22:59:32.949Z,14.47
2023-05-20T23:04:34.681Z,14.51
2023-05-20T23:09:37.197Z,14.54
2023-05-20T23:14:45.154Z,14.57
2023-05-20T23:19:47.515Z,14.61
2023-05-20T23:24:49.311Z,14.65
2023-05-20T23:29:51.210Z,14.65
2023-05-20T23:34:56.886Z,14.63
2023-05-20T23:39:59.402Z,14.61
2023-05-20T23:45:01.404Z,14.57
2023-05-20T23:50:23.131Z,14.53
2023-05-20T23:55:24.872Z,14.46
